KEWK/EWK METAR and TAF weather

Enter ICAO airport designator
Station Type Date Time Source
KEWK METAR 2021/05/14 03:56 UTC NOAA

KEWK 140356Z AUTO 13009KT 10SM CLR 12/04 A3022 RMK AO2 SLP228 T01220039


Station Type Date Time Source
KEWK Decoded METAR 2021/05/14 03:56 UTC NOAA

Newton, Newton City/County Airport, KS, United States (KEWK) 38-03N 097-17W
May 13, 2021 - 11:56 PM EDT / 2021.05.14 0356 UTC
Wind: from the SE (130 degrees) at 10 MPH (9 KT):0
Visibility: 10 mile(s):0
Sky conditions: clear
Temperature: 54.0 F (12.2 C)
Dew Point: 39.0 F (3.9 C)
Relative Humidity: 56%
Pressure (altimeter): 30.22 in. Hg (1023 hPa)
ob: KEWK 140356Z AUTO 13009KT 10SM CLR 12/04 A3022 RMK AO2 SLP228 T01220039
cycle: 4

Station Type Date Time Source
KEWK TAF UTC NOAA

Error!

Example: see airport list